Decoded Metar for EPLB ( in ) (IATA:) | Meteo·Mobile Aviation Weather
aviador You're here:

EPLB Decoded Metar

in
Report Time2018-12-10 10:00:00
UTC Time2018-12-10 10:29:15
Flight Rules mvfr MVFR
Wind290° at 14 kt
W.Rank290° ranks 1
Current wind is above 290° avg. (8.2)
Visibility9999 m
Phenomena:Light Rain
Clouds:Broken 014 Hf
Overcast 021 Hf
Expected CloudBase > 800 ft AGL from Temp-Dew spread
Ceiling1,400 ft
Temp04°C
Dew Point02°C (87% RH)
AAT-2.7°C
QNH1001 hPa
Raw Report
EPLB 101000Z 29014KT 9999 -RA BKN014 OVC021 04/02 Q1001=

Extra information for EPLB:More info

Social comments